<?xml version="1.0" encoding="UTF-8" standalone="no" ?>
<gpx xmlns="http://www.topografix.com/GPX/1/1" xmlns:xsi="http://www.w3.org/2001/XMLSchema-instance" xsi:schemaLocation="http://www.topografix.com/GPX/1/1 http://www.topografix.com/GPX/1/1/gpx.xsd" version="1.1" creator="VisuGPX - https://www.visugpx.com">
  <metadata>
    <name>SAINT-NOLFF</name>
    <desc><![CDATA[parking prés de l\'église]]></desc>
  </metadata>
  <trk>
    <name><![CDATA[SAINT-NOLFF_1]]></name>
    <trkseg>
      <trkpt lat="47.70303" lon="-2.65064">
        <ele>3</ele>
        <time>2012-05-30T12:30:15</time>
      </trkpt>
      <trkpt lat="47.70311" lon="-2.65065">
        <ele>20</ele>
        <time>2012-05-30T12:30:45</time>
      </trkpt>
      <trkpt lat="47.70306" lon="-2.65059">
        <ele>19</ele>
        <time>2012-05-30T12:31:15</time>
      </trkpt>
      <trkpt lat="47.70298" lon="-2.65065">
        <ele>19</ele>
        <time>2012-05-30T12:31:45</time>
      </trkpt>
      <trkpt lat="47.7029" lon="-2.6507">
        <ele>19</ele>
        <time>2012-05-30T12:32:15</time>
      </trkpt>
      <trkpt lat="47.70298" lon="-2.65061">
        <ele>19</ele>
        <time>2012-05-30T12:32:45</time>
      </trkpt>
      <trkpt lat="47.70302" lon="-2.65074">
        <ele>19</ele>
        <time>2012-05-30T12:33:16</time>
      </trkpt>
      <trkpt lat="47.70314" lon="-2.65091">
        <ele>18</ele>
        <time>2012-05-30T12:33:46</time>
      </trkpt>
      <trkpt lat="47.70319" lon="-2.65126">
        <ele>18</ele>
        <time>2012-05-30T12:34:16</time>
      </trkpt>
      <trkpt lat="47.70309" lon="-2.65165">
        <ele>18</ele>
        <time>2012-05-30T12:34:46</time>
      </trkpt>
      <trkpt lat="47.70293" lon="-2.65201">
        <ele>19</ele>
        <time>2012-05-30T12:35:16</time>
      </trkpt>
      <trkpt lat="47.70293" lon="-2.65248">
        <ele>18</ele>
        <time>2012-05-30T12:35:47</time>
      </trkpt>
      <trkpt lat="47.703" lon="-2.65289">
        <ele>17</ele>
        <time>2012-05-30T12:36:17</time>
      </trkpt>
      <trkpt lat="47.70295" lon="-2.65332">
        <ele>17</ele>
        <time>2012-05-30T12:36:47</time>
      </trkpt>
      <trkpt lat="47.70295" lon="-2.65387">
        <ele>17</ele>
        <time>2012-05-30T12:37:17</time>
      </trkpt>
      <trkpt lat="47.70291" lon="-2.65432">
        <ele>18</ele>
        <time>2012-05-30T12:37:47</time>
      </trkpt>
      <trkpt lat="47.70293" lon="-2.65484">
        <ele>17</ele>
        <time>2012-05-30T12:38:18</time>
      </trkpt>
      <trkpt lat="47.70283" lon="-2.65534">
        <ele>16</ele>
        <time>2012-05-30T12:38:48</time>
      </trkpt>
      <trkpt lat="47.70267" lon="-2.65576">
        <ele>16</ele>
        <time>2012-05-30T12:39:18</time>
      </trkpt>
      <trkpt lat="47.70265" lon="-2.65632">
        <ele>15</ele>
        <time>2012-05-30T12:39:48</time>
      </trkpt>
      <trkpt lat="47.70261" lon="-2.65682">
        <ele>15</ele>
        <time>2012-05-30T12:40:18</time>
      </trkpt>
      <trkpt lat="47.70274" lon="-2.65733">
        <ele>15</ele>
        <time>2012-05-30T12:40:48</time>
      </trkpt>
      <trkpt lat="47.70293" lon="-2.6578">
        <ele>16</ele>
        <time>2012-05-30T12:41:19</time>
      </trkpt>
      <trkpt lat="47.7028" lon="-2.6582">
        <ele>15</ele>
        <time>2012-05-30T12:41:49</time>
      </trkpt>
      <trkpt lat="47.70255" lon="-2.65847">
        <ele>16</ele>
        <time>2012-05-30T12:42:19</time>
      </trkpt>
      <trkpt lat="47.70268" lon="-2.65869">
        <ele>17</ele>
        <time>2012-05-30T12:42:49</time>
      </trkpt>
      <trkpt lat="47.70296" lon="-2.65837">
        <ele>17</ele>
        <time>2012-05-30T12:43:19</time>
      </trkpt>
      <trkpt lat="47.70309" lon="-2.6585">
        <ele>15</ele>
        <time>2012-05-30T12:43:50</time>
      </trkpt>
      <trkpt lat="47.70336" lon="-2.65847">
        <ele>14</ele>
        <time>2012-05-30T12:44:20</time>
      </trkpt>
      <trkpt lat="47.70344" lon="-2.65859">
        <ele>14</ele>
        <time>2012-05-30T12:44:50</time>
      </trkpt>
      <trkpt lat="47.70356" lon="-2.65868">
        <ele>14</ele>
        <time>2012-05-30T12:45:20</time>
      </trkpt>
      <trkpt lat="47.70343" lon="-2.65896">
        <ele>14</ele>
        <time>2012-05-30T12:45:50</time>
      </trkpt>
      <trkpt lat="47.70366" lon="-2.65906">
        <ele>13</ele>
        <time>2012-05-30T12:46:21</time>
      </trkpt>
      <trkpt lat="47.7038" lon="-2.65947">
        <ele>13</ele>
        <time>2012-05-30T12:46:51</time>
      </trkpt>
      <trkpt lat="47.7039" lon="-2.65987">
        <ele>13</ele>
        <time>2012-05-30T12:47:21</time>
      </trkpt>
      <trkpt lat="47.70403" lon="-2.66021">
        <ele>13</ele>
        <time>2012-05-30T12:47:51</time>
      </trkpt>
      <trkpt lat="47.70402" lon="-2.66076">
        <ele>13</ele>
        <time>2012-05-30T12:48:21</time>
      </trkpt>
      <trkpt lat="47.70394" lon="-2.66121">
        <ele>13</ele>
        <time>2012-05-30T12:48:51</time>
      </trkpt>
      <trkpt lat="47.7039" lon="-2.66172">
        <ele>13</ele>
        <time>2012-05-30T12:49:21</time>
      </trkpt>
      <trkpt lat="47.70399" lon="-2.66227">
        <ele>14</ele>
        <time>2012-05-30T12:49:52</time>
      </trkpt>
      <trkpt lat="47.70396" lon="-2.66247">
        <ele>13</ele>
        <time>2012-05-30T12:50:22</time>
      </trkpt>
      <trkpt lat="47.70398" lon="-2.66246">
        <ele>12</ele>
        <time>2012-05-30T12:50:52</time>
      </trkpt>
      <trkpt lat="47.70396" lon="-2.66249">
        <ele>13</ele>
        <time>2012-05-30T12:51:22</time>
      </trkpt>
      <trkpt lat="47.70405" lon="-2.66251">
        <ele>13</ele>
        <time>2012-05-30T12:51:52</time>
      </trkpt>
      <trkpt lat="47.70412" lon="-2.6625">
        <ele>12</ele>
        <time>2012-05-30T12:52:22</time>
      </trkpt>
      <trkpt lat="47.70428" lon="-2.66266">
        <ele>13</ele>
        <time>2012-05-30T12:52:53</time>
      </trkpt>
      <trkpt lat="47.70459" lon="-2.6629">
        <ele>13</ele>
        <time>2012-05-30T12:53:23</time>
      </trkpt>
      <trkpt lat="47.70491" lon="-2.66307">
        <ele>12</ele>
        <time>2012-05-30T12:53:53</time>
      </trkpt>
      <trkpt lat="47.70527" lon="-2.66344">
        <ele>13</ele>
        <time>2012-05-30T12:54:23</time>
      </trkpt>
      <trkpt lat="47.70547" lon="-2.66386">
        <ele>13</ele>
        <time>2012-05-30T12:54:53</time>
      </trkpt>
      <trkpt lat="47.70561" lon="-2.66435">
        <ele>14</ele>
        <time>2012-05-30T12:55:23</time>
      </trkpt>
      <trkpt lat="47.70544" lon="-2.66476">
        <ele>13</ele>
        <time>2012-05-30T12:55:54</time>
      </trkpt>
      <trkpt lat="47.7053" lon="-2.66509">
        <ele>14</ele>
        <time>2012-05-30T12:56:24</time>
      </trkpt>
      <trkpt lat="47.70538" lon="-2.66561">
        <ele>14</ele>
        <time>2012-05-30T12:56:54</time>
      </trkpt>
      <trkpt lat="47.70543" lon="-2.6661">
        <ele>13</ele>
        <time>2012-05-30T12:57:24</time>
      </trkpt>
      <trkpt lat="47.70528" lon="-2.66642">
        <ele>13</ele>
        <time>2012-05-30T12:57:54</time>
      </trkpt>
      <trkpt lat="47.7051" lon="-2.6664">
        <ele>15</ele>
        <time>2012-05-30T12:58:24</time>
      </trkpt>
      <trkpt lat="47.70512" lon="-2.66688">
        <ele>14</ele>
        <time>2012-05-30T12:58:55</time>
      </trkpt>
      <trkpt lat="47.70517" lon="-2.66744">
        <ele>14</ele>
        <time>2012-05-30T12:59:25</time>
      </trkpt>
      <trkpt lat="47.7052" lon="-2.668">
        <ele>14</ele>
        <time>2012-05-30T12:59:55</time>
      </trkpt>
      <trkpt lat="47.70524" lon="-2.6686">
        <ele>14</ele>
        <time>2012-05-30T13:00:25</time>
      </trkpt>
      <trkpt lat="47.70528" lon="-2.66911">
        <ele>13</ele>
        <time>2012-05-30T13:00:55</time>
      </trkpt>
      <trkpt lat="47.70509" lon="-2.66923">
        <ele>12</ele>
        <time>2012-05-30T13:01:25</time>
      </trkpt>
      <trkpt lat="47.70488" lon="-2.6694">
        <ele>14</ele>
        <time>2012-05-30T13:01:56</time>
      </trkpt>
      <trkpt lat="47.70472" lon="-2.66982">
        <ele>16</ele>
        <time>2012-05-30T13:02:26</time>
      </trkpt>
      <trkpt lat="47.70456" lon="-2.6703">
        <ele>17</ele>
        <time>2012-05-30T13:02:56</time>
      </trkpt>
      <trkpt lat="47.70454" lon="-2.67058">
        <ele>16</ele>
        <time>2012-05-30T13:03:26</time>
      </trkpt>
      <trkpt lat="47.70444" lon="-2.67084">
        <ele>17</ele>
        <time>2012-05-30T13:03:56</time>
      </trkpt>
      <trkpt lat="47.70427" lon="-2.67129">
        <ele>17</ele>
        <time>2012-05-30T13:04:27</time>
      </trkpt>
      <trkpt lat="47.7041" lon="-2.67179">
        <ele>17</ele>
        <time>2012-05-30T13:04:57</time>
      </trkpt>
      <trkpt lat="47.70396" lon="-2.67229">
        <ele>18</ele>
        <time>2012-05-30T13:05:27</time>
      </trkpt>
      <trkpt lat="47.70393" lon="-2.67285">
        <ele>19</ele>
        <time>2012-05-30T13:05:57</time>
      </trkpt>
      <trkpt lat="47.70395" lon="-2.67342">
        <ele>17</ele>
        <time>2012-05-30T13:06:27</time>
      </trkpt>
      <trkpt lat="47.70395" lon="-2.67397">
        <ele>16</ele>
        <time>2012-05-30T13:06:58</time>
      </trkpt>
      <trkpt lat="47.70398" lon="-2.6742">
        <ele>16</ele>
        <time>2012-05-30T13:07:28</time>
      </trkpt>
      <trkpt lat="47.70402" lon="-2.67469">
        <ele>15</ele>
        <time>2012-05-30T13:07:58</time>
      </trkpt>
      <trkpt lat="47.70409" lon="-2.67524">
        <ele>15</ele>
        <time>2012-05-30T13:08:28</time>
      </trkpt>
      <trkpt lat="47.70413" lon="-2.67586">
        <ele>15</ele>
        <time>2012-05-30T13:08:58</time>
      </trkpt>
      <trkpt lat="47.70414" lon="-2.67644">
        <ele>14</ele>
        <time>2012-05-30T13:09:29</time>
      </trkpt>
      <trkpt lat="47.70416" lon="-2.67706">
        <ele>13</ele>
        <time>2012-05-30T13:09:59</time>
      </trkpt>
      <trkpt lat="47.70395" lon="-2.67744">
        <ele>16</ele>
        <time>2012-05-30T13:10:29</time>
      </trkpt>
      <trkpt lat="47.70373" lon="-2.67783">
        <ele>19</ele>
        <time>2012-05-30T13:10:59</time>
      </trkpt>
      <trkpt lat="47.70366" lon="-2.67836">
        <ele>22</ele>
        <time>2012-05-30T13:11:29</time>
      </trkpt>
      <trkpt lat="47.70362" lon="-2.67884">
        <ele>24</ele>
        <time>2012-05-30T13:11:59</time>
      </trkpt>
      <trkpt lat="47.70358" lon="-2.67932">
        <ele>25</ele>
        <time>2012-05-30T13:12:30</time>
      </trkpt>
      <trkpt lat="47.70357" lon="-2.67976">
        <ele>27</ele>
        <time>2012-05-30T13:13:00</time>
      </trkpt>
      <trkpt lat="47.70354" lon="-2.68022">
        <ele>29</ele>
        <time>2012-05-30T13:13:30</time>
      </trkpt>
      <trkpt lat="47.7035" lon="-2.68061">
        <ele>31</ele>
        <time>2012-05-30T13:14:00</time>
      </trkpt>
      <trkpt lat="47.70344" lon="-2.68113">
        <ele>34</ele>
        <time>2012-05-30T13:14:30</time>
      </trkpt>
      <trkpt lat="47.70333" lon="-2.6816">
        <ele>36</ele>
        <time>2012-05-30T13:15:00</time>
      </trkpt>
      <trkpt lat="47.70325" lon="-2.68182">
        <ele>36</ele>
        <time>2012-05-30T13:15:31</time>
      </trkpt>
      <trkpt lat="47.70322" lon="-2.68179">
        <ele>37</ele>
        <time>2012-05-30T13:16:01</time>
      </trkpt>
      <trkpt lat="47.70316" lon="-2.68186">
        <ele>36</ele>
        <time>2012-05-30T13:16:31</time>
      </trkpt>
      <trkpt lat="47.70298" lon="-2.68211">
        <ele>37</ele>
        <time>2012-05-30T13:17:01</time>
      </trkpt>
      <trkpt lat="47.70274" lon="-2.68253">
        <ele>40</ele>
        <time>2012-05-30T13:17:31</time>
      </trkpt>
      <trkpt lat="47.70258" lon="-2.683">
        <ele>40</ele>
        <time>2012-05-30T13:18:01</time>
      </trkpt>
      <trkpt lat="47.70242" lon="-2.68346">
        <ele>45</ele>
        <time>2012-05-30T13:18:32</time>
      </trkpt>
      <trkpt lat="47.70218" lon="-2.68369">
        <ele>47</ele>
        <time>2012-05-30T13:19:02</time>
      </trkpt>
      <trkpt lat="47.70187" lon="-2.68377">
        <ele>49</ele>
        <time>2012-05-30T13:19:32</time>
      </trkpt>
      <trkpt lat="47.7016" lon="-2.68392">
        <ele>52</ele>
        <time>2012-05-30T13:20:02</time>
      </trkpt>
      <trkpt lat="47.70131" lon="-2.68408">
        <ele>55</ele>
        <time>2012-05-30T13:20:32</time>
      </trkpt>
      <trkpt lat="47.70104" lon="-2.68425">
        <ele>58</ele>
        <time>2012-05-30T13:21:02</time>
      </trkpt>
      <trkpt lat="47.70072" lon="-2.68433">
        <ele>61</ele>
        <time>2012-05-30T13:21:33</time>
      </trkpt>
      <trkpt lat="47.70043" lon="-2.68446">
        <ele>63</ele>
        <time>2012-05-30T13:22:03</time>
      </trkpt>
      <trkpt lat="47.70009" lon="-2.68441">
        <ele>63</ele>
        <time>2012-05-30T13:22:33</time>
      </trkpt>
      <trkpt lat="47.69977" lon="-2.68426">
        <ele>63</ele>
        <time>2012-05-30T13:23:03</time>
      </trkpt>
      <trkpt lat="47.69943" lon="-2.684">
        <ele>63</ele>
        <time>2012-05-30T13:23:33</time>
      </trkpt>
      <trkpt lat="47.69914" lon="-2.68373">
        <ele>61</ele>
        <time>2012-05-30T13:24:04</time>
      </trkpt>
      <trkpt lat="47.6991" lon="-2.68368">
        <ele>63</ele>
        <time>2012-05-30T13:24:34</time>
      </trkpt>
      <trkpt lat="47.6991" lon="-2.68367">
        <ele>62</ele>
        <time>2012-05-30T13:25:04</time>
      </trkpt>
      <trkpt lat="47.69903" lon="-2.68375">
        <ele>62</ele>
        <time>2012-05-30T13:25:34</time>
      </trkpt>
      <trkpt lat="47.6988" lon="-2.68422">
        <ele>60</ele>
        <time>2012-05-30T13:26:04</time>
      </trkpt>
      <trkpt lat="47.69856" lon="-2.68467">
        <ele>59</ele>
        <time>2012-05-30T13:26:35</time>
      </trkpt>
      <trkpt lat="47.69825" lon="-2.685">
        <ele>57</ele>
        <time>2012-05-30T13:27:05</time>
      </trkpt>
      <trkpt lat="47.69788" lon="-2.68512">
        <ele>56</ele>
        <time>2012-05-30T13:27:35</time>
      </trkpt>
      <trkpt lat="47.69754" lon="-2.68533">
        <ele>54</ele>
        <time>2012-05-30T13:28:05</time>
      </trkpt>
      <trkpt lat="47.69748" lon="-2.68505">
        <ele>52</ele>
        <time>2012-05-30T13:28:35</time>
      </trkpt>
      <trkpt lat="47.69745" lon="-2.68459">
        <ele>53</ele>
        <time>2012-05-30T13:29:06</time>
      </trkpt>
      <trkpt lat="47.69738" lon="-2.68408">
        <ele>52</ele>
        <time>2012-05-30T13:29:36</time>
      </trkpt>
      <trkpt lat="47.69728" lon="-2.68347">
        <ele>54</ele>
        <time>2012-05-30T13:30:06</time>
      </trkpt>
      <trkpt lat="47.69724" lon="-2.68298">
        <ele>55</ele>
        <time>2012-05-30T13:30:36</time>
      </trkpt>
      <trkpt lat="47.69716" lon="-2.68247">
        <ele>56</ele>
        <time>2012-05-30T13:31:06</time>
      </trkpt>
      <trkpt lat="47.69711" lon="-2.68197">
        <ele>58</ele>
        <time>2012-05-30T13:31:36</time>
      </trkpt>
      <trkpt lat="47.69705" lon="-2.68143">
        <ele>59</ele>
        <time>2012-05-30T13:32:07</time>
      </trkpt>
      <trkpt lat="47.69684" lon="-2.68082">
        <ele>60</ele>
        <time>2012-05-30T13:32:37</time>
      </trkpt>
      <trkpt lat="47.69666" lon="-2.68034">
        <ele>60</ele>
        <time>2012-05-30T13:33:07</time>
      </trkpt>
      <trkpt lat="47.69633" lon="-2.68034">
        <ele>60</ele>
        <time>2012-05-30T13:33:37</time>
      </trkpt>
      <trkpt lat="47.69598" lon="-2.68044">
        <ele>58</ele>
        <time>2012-05-30T13:34:07</time>
      </trkpt>
      <trkpt lat="47.69565" lon="-2.68057">
        <ele>57</ele>
        <time>2012-05-30T13:34:38</time>
      </trkpt>
      <trkpt lat="47.69523" lon="-2.68054">
        <ele>55</ele>
        <time>2012-05-30T13:35:08</time>
      </trkpt>
      <trkpt lat="47.69495" lon="-2.68032">
        <ele>55</ele>
        <time>2012-05-30T13:35:38</time>
      </trkpt>
      <trkpt lat="47.69488" lon="-2.68025">
        <ele>54</ele>
        <time>2012-05-30T13:36:08</time>
      </trkpt>
      <trkpt lat="47.69485" lon="-2.68029">
        <ele>55</ele>
        <time>2012-05-30T13:36:38</time>
      </trkpt>
      <trkpt lat="47.69487" lon="-2.68028">
        <ele>54</ele>
        <time>2012-05-30T13:37:08</time>
      </trkpt>
      <trkpt lat="47.69474" lon="-2.68023">
        <ele>55</ele>
        <time>2012-05-30T13:37:39</time>
      </trkpt>
      <trkpt lat="47.69461" lon="-2.68019">
        <ele>53</ele>
        <time>2012-05-30T13:38:09</time>
      </trkpt>
      <trkpt lat="47.6946" lon="-2.68019">
        <ele>54</ele>
        <time>2012-05-30T13:38:39</time>
      </trkpt>
      <trkpt lat="47.69459" lon="-2.68017">
        <ele>54</ele>
        <time>2012-05-30T13:39:09</time>
      </trkpt>
      <trkpt lat="47.69461" lon="-2.68017">
        <ele>54</ele>
        <time>2012-05-30T13:39:39</time>
      </trkpt>
      <trkpt lat="47.69458" lon="-2.68002">
        <ele>53</ele>
        <time>2012-05-30T13:40:10</time>
      </trkpt>
      <trkpt lat="47.69455" lon="-2.68002">
        <ele>53</ele>
        <time>2012-05-30T13:40:40</time>
      </trkpt>
      <trkpt lat="47.69448" lon="-2.67952">
        <ele>51</ele>
        <time>2012-05-30T13:41:10</time>
      </trkpt>
      <trkpt lat="47.69437" lon="-2.67899">
        <ele>50</ele>
        <time>2012-05-30T13:41:40</time>
      </trkpt>
      <trkpt lat="47.69423" lon="-2.67855">
        <ele>49</ele>
        <time>2012-05-30T13:42:10</time>
      </trkpt>
      <trkpt lat="47.69414" lon="-2.6783">
        <ele>49</ele>
        <time>2012-05-30T13:42:41</time>
      </trkpt>
      <trkpt lat="47.69401" lon="-2.67773">
        <ele>48</ele>
        <time>2012-05-30T13:43:11</time>
      </trkpt>
      <trkpt lat="47.69401" lon="-2.67719">
        <ele>46</ele>
        <time>2012-05-30T13:43:41</time>
      </trkpt>
      <trkpt lat="47.69412" lon="-2.67677">
        <ele>46</ele>
        <time>2012-05-30T13:44:11</time>
      </trkpt>
      <trkpt lat="47.69419" lon="-2.67649">
        <ele>48</ele>
        <time>2012-05-30T13:44:41</time>
      </trkpt>
      <trkpt lat="47.69433" lon="-2.67618">
        <ele>50</ele>
        <time>2012-05-30T13:45:12</time>
      </trkpt>
      <trkpt lat="47.69431" lon="-2.6757">
        <ele>51</ele>
        <time>2012-05-30T13:45:42</time>
      </trkpt>
      <trkpt lat="47.69452" lon="-2.67529">
        <ele>52</ele>
        <time>2012-05-30T13:46:12</time>
      </trkpt>
      <trkpt lat="47.69476" lon="-2.67491">
        <ele>51</ele>
        <time>2012-05-30T13:46:42</time>
      </trkpt>
      <trkpt lat="47.69499" lon="-2.67462">
        <ele>52</ele>
        <time>2012-05-30T13:47:12</time>
      </trkpt>
      <trkpt lat="47.6953" lon="-2.67432">
        <ele>52</ele>
        <time>2012-05-30T13:47:42</time>
      </trkpt>
      <trkpt lat="47.69563" lon="-2.67402">
        <ele>53</ele>
        <time>2012-05-30T13:48:13</time>
      </trkpt>
      <trkpt lat="47.69591" lon="-2.67356">
        <ele>55</ele>
        <time>2012-05-30T13:48:43</time>
      </trkpt>
      <trkpt lat="47.69613" lon="-2.67323">
        <ele>57</ele>
        <time>2012-05-30T13:49:13</time>
      </trkpt>
      <trkpt lat="47.69633" lon="-2.67283">
        <ele>59</ele>
        <time>2012-05-30T13:49:43</time>
      </trkpt>
      <trkpt lat="47.6964" lon="-2.67231">
        <ele>62</ele>
        <time>2012-05-30T13:50:14</time>
      </trkpt>
      <trkpt lat="47.69607" lon="-2.67197">
        <ele>62</ele>
        <time>2012-05-30T13:50:43</time>
      </trkpt>
      <trkpt lat="47.69573" lon="-2.67179">
        <ele>64</ele>
        <time>2012-05-30T13:51:14</time>
      </trkpt>
      <trkpt lat="47.69537" lon="-2.67158">
        <ele>62</ele>
        <time>2012-05-30T13:51:44</time>
      </trkpt>
      <trkpt lat="47.69506" lon="-2.67144">
        <ele>62</ele>
        <time>2012-05-30T13:52:14</time>
      </trkpt>
      <trkpt lat="47.69489" lon="-2.67139">
        <ele>61</ele>
        <time>2012-05-30T13:52:44</time>
      </trkpt>
      <trkpt lat="47.69484" lon="-2.6714">
        <ele>61</ele>
        <time>2012-05-30T13:53:14</time>
      </trkpt>
      <trkpt lat="47.6948" lon="-2.67142">
        <ele>62</ele>
        <time>2012-05-30T13:53:45</time>
      </trkpt>
      <trkpt lat="47.69478" lon="-2.67147">
        <ele>60</ele>
        <time>2012-05-30T13:54:15</time>
      </trkpt>
      <trkpt lat="47.69482" lon="-2.67135">
        <ele>62</ele>
        <time>2012-05-30T13:54:45</time>
      </trkpt>
      <trkpt lat="47.69512" lon="-2.67102">
        <ele>63</ele>
        <time>2012-05-30T13:55:15</time>
      </trkpt>
      <trkpt lat="47.69534" lon="-2.6706">
        <ele>64</ele>
        <time>2012-05-30T13:55:45</time>
      </trkpt>
      <trkpt lat="47.69551" lon="-2.67018">
        <ele>65</ele>
        <time>2012-05-30T13:56:15</time>
      </trkpt>
      <trkpt lat="47.69574" lon="-2.66971">
        <ele>66</ele>
        <time>2012-05-30T13:56:46</time>
      </trkpt>
      <trkpt lat="47.696" lon="-2.66947">
        <ele>68</ele>
        <time>2012-05-30T13:57:16</time>
      </trkpt>
      <trkpt lat="47.69628" lon="-2.66928">
        <ele>68</ele>
        <time>2012-05-30T13:57:46</time>
      </trkpt>
      <trkpt lat="47.69636" lon="-2.66922">
        <ele>68</ele>
        <time>2012-05-30T13:58:16</time>
      </trkpt>
      <trkpt lat="47.69641" lon="-2.6691">
        <ele>68</ele>
        <time>2012-05-30T13:58:46</time>
      </trkpt>
      <trkpt lat="47.69646" lon="-2.66909">
        <ele>68</ele>
        <time>2012-05-30T13:59:16</time>
      </trkpt>
      <trkpt lat="47.69648" lon="-2.66907">
        <ele>70</ele>
        <time>2012-05-30T13:59:47</time>
      </trkpt>
      <trkpt lat="47.6965" lon="-2.66909">
        <ele>69</ele>
        <time>2012-05-30T14:00:17</time>
      </trkpt>
      <trkpt lat="47.69647" lon="-2.66904">
        <ele>70</ele>
        <time>2012-05-30T14:00:47</time>
      </trkpt>
      <trkpt lat="47.69644" lon="-2.66898">
        <ele>69</ele>
        <time>2012-05-30T14:01:17</time>
      </trkpt>
      <trkpt lat="47.69645" lon="-2.66897">
        <ele>69</ele>
        <time>2012-05-30T14:01:47</time>
      </trkpt>
      <trkpt lat="47.69645" lon="-2.669">
        <ele>69</ele>
        <time>2012-05-30T14:02:17</time>
      </trkpt>
      <trkpt lat="47.69644" lon="-2.66901">
        <ele>69</ele>
        <time>2012-05-30T14:02:48</time>
      </trkpt>
      <trkpt lat="47.69647" lon="-2.66876">
        <ele>69</ele>
        <time>2012-05-30T14:03:18</time>
      </trkpt>
      <trkpt lat="47.69626" lon="-2.66848">
        <ele>69</ele>
        <time>2012-05-30T14:03:48</time>
      </trkpt>
      <trkpt lat="47.69611" lon="-2.66809">
        <ele>70</ele>
        <time>2012-05-30T14:04:18</time>
      </trkpt>
      <trkpt lat="47.69595" lon="-2.66757">
        <ele>70</ele>
        <time>2012-05-30T14:04:48</time>
      </trkpt>
      <trkpt lat="47.6958" lon="-2.66718">
        <ele>70</ele>
        <time>2012-05-30T14:05:18</time>
      </trkpt>
      <trkpt lat="47.69564" lon="-2.66681">
        <ele>70</ele>
        <time>2012-05-30T14:05:49</time>
      </trkpt>
      <trkpt lat="47.69555" lon="-2.66625">
        <ele>68</ele>
        <time>2012-05-30T14:06:19</time>
      </trkpt>
      <trkpt lat="47.69562" lon="-2.66569">
        <ele>69</ele>
        <time>2012-05-30T14:06:49</time>
      </trkpt>
      <trkpt lat="47.69575" lon="-2.66522">
        <ele>69</ele>
        <time>2012-05-30T14:07:19</time>
      </trkpt>
      <trkpt lat="47.6959" lon="-2.66466">
        <ele>69</ele>
        <time>2012-05-30T14:07:49</time>
      </trkpt>
      <trkpt lat="47.69604" lon="-2.66422">
        <ele>70</ele>
        <time>2012-05-30T14:08:20</time>
      </trkpt>
      <trkpt lat="47.69593" lon="-2.66378">
        <ele>71</ele>
        <time>2012-05-30T14:08:50</time>
      </trkpt>
      <trkpt lat="47.69606" lon="-2.66338">
        <ele>71</ele>
        <time>2012-05-30T14:09:20</time>
      </trkpt>
      <trkpt lat="47.69617" lon="-2.66291">
        <ele>71</ele>
        <time>2012-05-30T14:09:50</time>
      </trkpt>
      <trkpt lat="47.6963" lon="-2.66247">
        <ele>73</ele>
        <time>2012-05-30T14:10:20</time>
      </trkpt>
      <trkpt lat="47.69625" lon="-2.66239">
        <ele>72</ele>
        <time>2012-05-30T14:10:50</time>
      </trkpt>
      <trkpt lat="47.69628" lon="-2.66217">
        <ele>72</ele>
        <time>2012-05-30T14:11:21</time>
      </trkpt>
      <trkpt lat="47.69648" lon="-2.66178">
        <ele>74</ele>
        <time>2012-05-30T14:11:51</time>
      </trkpt>
      <trkpt lat="47.69669" lon="-2.66121">
        <ele>73</ele>
        <time>2012-05-30T14:12:21</time>
      </trkpt>
      <trkpt lat="47.69691" lon="-2.66064">
        <ele>75</ele>
        <time>2012-05-30T14:12:51</time>
      </trkpt>
      <trkpt lat="47.69712" lon="-2.66012">
        <ele>75</ele>
        <time>2012-05-30T14:13:21</time>
      </trkpt>
      <trkpt lat="47.69731" lon="-2.65971">
        <ele>76</ele>
        <time>2012-05-30T14:13:52</time>
      </trkpt>
      <trkpt lat="47.69749" lon="-2.6593">
        <ele>75</ele>
        <time>2012-05-30T14:14:22</time>
      </trkpt>
      <trkpt lat="47.6977" lon="-2.65886">
        <ele>76</ele>
        <time>2012-05-30T14:14:52</time>
      </trkpt>
      <trkpt lat="47.69794" lon="-2.65845">
        <ele>77</ele>
        <time>2012-05-30T14:15:22</time>
      </trkpt>
      <trkpt lat="47.69797" lon="-2.65792">
        <ele>76</ele>
        <time>2012-05-30T14:15:52</time>
      </trkpt>
      <trkpt lat="47.69806" lon="-2.65775">
        <ele>76</ele>
        <time>2012-05-30T14:16:23</time>
      </trkpt>
      <trkpt lat="47.69811" lon="-2.65775">
        <ele>75</ele>
        <time>2012-05-30T14:16:53</time>
      </trkpt>
      <trkpt lat="47.69831" lon="-2.6574">
        <ele>75</ele>
        <time>2012-05-30T14:17:23</time>
      </trkpt>
      <trkpt lat="47.6985" lon="-2.65702">
        <ele>74</ele>
        <time>2012-05-30T14:17:53</time>
      </trkpt>
      <trkpt lat="47.6987" lon="-2.65672">
        <ele>72</ele>
        <time>2012-05-30T14:18:23</time>
      </trkpt>
      <trkpt lat="47.6988" lon="-2.65641">
        <ele>71</ele>
        <time>2012-05-30T14:18:53</time>
      </trkpt>
      <trkpt lat="47.69892" lon="-2.6561">
        <ele>69</ele>
        <time>2012-05-30T14:19:24</time>
      </trkpt>
      <trkpt lat="47.69901" lon="-2.65564">
        <ele>71</ele>
        <time>2012-05-30T14:19:54</time>
      </trkpt>
      <trkpt lat="47.69909" lon="-2.65519">
        <ele>67</ele>
        <time>2012-05-30T14:20:24</time>
      </trkpt>
      <trkpt lat="47.69918" lon="-2.65496">
        <ele>64</ele>
        <time>2012-05-30T14:20:54</time>
      </trkpt>
      <trkpt lat="47.69923" lon="-2.65477">
        <ele>71</ele>
        <time>2012-05-30T14:21:24</time>
      </trkpt>
      <trkpt lat="47.69921" lon="-2.65465">
        <ele>60</ele>
        <time>2012-05-30T14:21:54</time>
      </trkpt>
      <trkpt lat="47.69917" lon="-2.65473">
        <ele>61</ele>
        <time>2012-05-30T14:22:25</time>
      </trkpt>
      <trkpt lat="47.69921" lon="-2.65457">
        <ele>62</ele>
        <time>2012-05-30T14:22:55</time>
      </trkpt>
      <trkpt lat="47.69935" lon="-2.65418">
        <ele>59</ele>
        <time>2012-05-30T14:23:25</time>
      </trkpt>
      <trkpt lat="47.69945" lon="-2.65368">
        <ele>57</ele>
        <time>2012-05-30T14:23:55</time>
      </trkpt>
      <trkpt lat="47.69951" lon="-2.65316">
        <ele>56</ele>
        <time>2012-05-30T14:24:25</time>
      </trkpt>
      <trkpt lat="47.69964" lon="-2.65258">
        <ele>55</ele>
        <time>2012-05-30T14:24:55</time>
      </trkpt>
      <trkpt lat="47.69972" lon="-2.65202">
        <ele>54</ele>
        <time>2012-05-30T14:25:26</time>
      </trkpt>
      <trkpt lat="47.69982" lon="-2.65146">
        <ele>54</ele>
        <time>2012-05-30T14:25:56</time>
      </trkpt>
      <trkpt lat="47.69999" lon="-2.65089">
        <ele>53</ele>
        <time>2012-05-30T14:26:26</time>
      </trkpt>
      <trkpt lat="47.70005" lon="-2.65036">
        <ele>52</ele>
        <time>2012-05-30T14:26:56</time>
      </trkpt>
      <trkpt lat="47.70007" lon="-2.65013">
        <ele>53</ele>
        <time>2012-05-30T14:27:26</time>
      </trkpt>
      <trkpt lat="47.70009" lon="-2.6497">
        <ele>52</ele>
        <time>2012-05-30T14:27:56</time>
      </trkpt>
      <trkpt lat="47.70012" lon="-2.64916">
        <ele>52</ele>
        <time>2012-05-30T14:28:27</time>
      </trkpt>
      <trkpt lat="47.70014" lon="-2.64864">
        <ele>52</ele>
        <time>2012-05-30T14:28:57</time>
      </trkpt>
      <trkpt lat="47.70016" lon="-2.64809">
        <ele>52</ele>
        <time>2012-05-30T14:29:27</time>
      </trkpt>
      <trkpt lat="47.70015" lon="-2.64749">
        <ele>51</ele>
        <time>2012-05-30T14:29:57</time>
      </trkpt>
      <trkpt lat="47.70015" lon="-2.64692">
        <ele>50</ele>
        <time>2012-05-30T14:30:27</time>
      </trkpt>
      <trkpt lat="47.70007" lon="-2.64638">
        <ele>50</ele>
        <time>2012-05-30T14:30:57</time>
      </trkpt>
      <trkpt lat="47.70006" lon="-2.64583">
        <ele>51</ele>
        <time>2012-05-30T14:31:28</time>
      </trkpt>
      <trkpt lat="47.70002" lon="-2.64529">
        <ele>52</ele>
        <time>2012-05-30T14:31:58</time>
      </trkpt>
      <trkpt lat="47.70004" lon="-2.64466">
        <ele>51</ele>
        <time>2012-05-30T14:32:28</time>
      </trkpt>
      <trkpt lat="47.70008" lon="-2.64406">
        <ele>50</ele>
        <time>2012-05-30T14:32:58</time>
      </trkpt>
      <trkpt lat="47.70009" lon="-2.64352">
        <ele>49</ele>
        <time>2012-05-30T14:33:28</time>
      </trkpt>
      <trkpt lat="47.70017" lon="-2.64297">
        <ele>47</ele>
        <time>2012-05-30T14:33:58</time>
      </trkpt>
      <trkpt lat="47.70025" lon="-2.64245">
        <ele>47</ele>
        <time>2012-05-30T14:34:29</time>
      </trkpt>
      <trkpt lat="47.70037" lon="-2.64204">
        <ele>45</ele>
        <time>2012-05-30T14:34:59</time>
      </trkpt>
      <trkpt lat="47.70042" lon="-2.64197">
        <ele>44</ele>
        <time>2012-05-30T14:35:29</time>
      </trkpt>
      <trkpt lat="47.70042" lon="-2.64172">
        <ele>44</ele>
        <time>2012-05-30T14:35:59</time>
      </trkpt>
      <trkpt lat="47.70034" lon="-2.6412">
        <ele>43</ele>
        <time>2012-05-30T14:36:29</time>
      </trkpt>
      <trkpt lat="47.70028" lon="-2.64073">
        <ele>44</ele>
        <time>2012-05-30T14:36:59</time>
      </trkpt>
      <trkpt lat="47.70021" lon="-2.64022">
        <ele>44</ele>
        <time>2012-05-30T14:37:30</time>
      </trkpt>
      <trkpt lat="47.70013" lon="-2.63971">
        <ele>44</ele>
        <time>2012-05-30T14:38:00</time>
      </trkpt>
      <trkpt lat="47.70013" lon="-2.63918">
        <ele>44</ele>
        <time>2012-05-30T14:38:30</time>
      </trkpt>
      <trkpt lat="47.70039" lon="-2.63903">
        <ele>40</ele>
        <time>2012-05-30T14:39:00</time>
      </trkpt>
      <trkpt lat="47.70067" lon="-2.63918">
        <ele>37</ele>
        <time>2012-05-30T14:39:30</time>
      </trkpt>
      <trkpt lat="47.70079" lon="-2.63957">
        <ele>35</ele>
        <time>2012-05-30T14:40:00</time>
      </trkpt>
      <trkpt lat="47.70097" lon="-2.6399">
        <ele>32</ele>
        <time>2012-05-30T14:40:31</time>
      </trkpt>
      <trkpt lat="47.70128" lon="-2.64007">
        <ele>31</ele>
        <time>2012-05-30T14:41:01</time>
      </trkpt>
      <trkpt lat="47.70161" lon="-2.63996">
        <ele>27</ele>
        <time>2012-05-30T14:41:31</time>
      </trkpt>
      <trkpt lat="47.70176" lon="-2.6401">
        <ele>25</ele>
        <time>2012-05-30T14:42:01</time>
      </trkpt>
      <trkpt lat="47.70182" lon="-2.64055">
        <ele>26</ele>
        <time>2012-05-30T14:42:31</time>
      </trkpt>
      <trkpt lat="47.70184" lon="-2.64098">
        <ele>27</ele>
        <time>2012-05-30T14:43:01</time>
      </trkpt>
      <trkpt lat="47.70192" lon="-2.64148">
        <ele>26</ele>
        <time>2012-05-30T14:43:32</time>
      </trkpt>
      <trkpt lat="47.7019" lon="-2.64185">
        <ele>27</ele>
        <time>2012-05-30T14:44:02</time>
      </trkpt>
      <trkpt lat="47.70193" lon="-2.64238">
        <ele>28</ele>
        <time>2012-05-30T14:44:32</time>
      </trkpt>
      <trkpt lat="47.70194" lon="-2.64289">
        <ele>28</ele>
        <time>2012-05-30T14:45:02</time>
      </trkpt>
      <trkpt lat="47.70195" lon="-2.64333">
        <ele>28</ele>
        <time>2012-05-30T14:45:32</time>
      </trkpt>
      <trkpt lat="47.70197" lon="-2.64385">
        <ele>29</ele>
        <time>2012-05-30T14:46:03</time>
      </trkpt>
      <trkpt lat="47.70198" lon="-2.64443">
        <ele>29</ele>
        <time>2012-05-30T14:46:33</time>
      </trkpt>
      <trkpt lat="47.70198" lon="-2.64496">
        <ele>29</ele>
        <time>2012-05-30T14:47:03</time>
      </trkpt>
      <trkpt lat="47.702" lon="-2.64554">
        <ele>29</ele>
        <time>2012-05-30T14:47:33</time>
      </trkpt>
      <trkpt lat="47.702" lon="-2.64611">
        <ele>30</ele>
        <time>2012-05-30T14:48:04</time>
      </trkpt>
      <trkpt lat="47.70201" lon="-2.64668">
        <ele>30</ele>
        <time>2012-05-30T14:48:34</time>
      </trkpt>
      <trkpt lat="47.70202" lon="-2.64724">
        <ele>30</ele>
        <time>2012-05-30T14:49:04</time>
      </trkpt>
      <trkpt lat="47.70201" lon="-2.64781">
        <ele>30</ele>
        <time>2012-05-30T14:49:34</time>
      </trkpt>
      <trkpt lat="47.702" lon="-2.64835">
        <ele>33</ele>
        <time>2012-05-30T14:50:04</time>
      </trkpt>
      <trkpt lat="47.70198" lon="-2.6489">
        <ele>34</ele>
        <time>2012-05-30T14:50:35</time>
      </trkpt>
      <trkpt lat="47.70193" lon="-2.64948">
        <ele>33</ele>
        <time>2012-05-30T14:51:05</time>
      </trkpt>
      <trkpt lat="47.70187" lon="-2.65002">
        <ele>32</ele>
        <time>2012-05-30T14:51:35</time>
      </trkpt>
      <trkpt lat="47.70187" lon="-2.65053">
        <ele>29</ele>
        <time>2012-05-30T14:52:05</time>
      </trkpt>
      <trkpt lat="47.70221" lon="-2.65067">
        <ele>26</ele>
        <time>2012-05-30T14:52:35</time>
      </trkpt>
      <trkpt lat="47.70258" lon="-2.65071">
        <ele>22</ele>
        <time>2012-05-30T14:53:05</time>
      </trkpt>
      <trkpt lat="47.70283" lon="-2.65088">
        <ele>21</ele>
        <time>2012-05-30T14:53:36</time>
      </trkpt>
      <trkpt lat="47.70301" lon="-2.65071">
        <ele>22</ele>
        <time>2012-05-30T14:53:57</time>
      </trkpt>
    </trkseg>
  </trk>
</gpx>